CheckWX is a tool to help pilots better visualize weather data.  It is not intended as a substitute for an official pre-flight weather briefing.

12:23:48 UTC

KSXT METAR
Sexton Summit Airport
Sexton Summit, Oregon, USA
Current

28 mins ago

KSXT 221156Z AUTO 13008KT 9SM -SN CLR M05/M06 A2999 RMK AO2 SNB40 SLP195 P0000 60000 I6000 T10501056 11039 21056 50003
Observed
Feb-22 @ 11:56 UTC
Wind
  • 130° at 8 KTS
Visibility
9 SM
Flight Rules
VFR
Conditions
Light Snow
Cloud Levels
  • Clear skies
Temperature
-5°C / 23°F
Dewpoint
-6°C / 21°F
Humidity
93%
Altimeter
29.99" Hg
Pressure
1019.5 hPa
Current Rain
0.01"
Previous

1 hour ago

KSXT 221056Z AUTO 12008KT 10SM CLR M04/M06 A2999 RMK AO2 SNE0957 SLP193 P0000 I1000 T10441056
Observed
Feb-22 @ 10:56 UTC
Wind
  • 120° at 8 KTS
Visibility
10 SM
Flight Rules
VFR
Cloud Levels
  • Clear skies
Temperature
-4°C / 25°F
Dewpoint
-6°C / 21°F
Humidity
86%
Altimeter
29.99" Hg
Pressure
1019.3 hPa
Current Rain
0.01"
Previous

2 hours ago

KSXT 220956Z AUTO 12007KT 9SM -SN CLR M04/M06 A2999 RMK AO2 SNB47 SLP193 P0000 I1000 T10441056
Observed
Feb-22 @ 09:56 UTC
Wind
  • 120° at 7 KTS
Visibility
9 SM
Flight Rules
VFR
Conditions
Light Snow
Cloud Levels
  • Clear skies
Temperature
-4°C / 25°F
Dewpoint
-6°C / 21°F
Humidity
86%
Altimeter
29.99" Hg
Pressure
1019.3 hPa
Current Rain
0.01"